createdAt,value
2019-01-27T00:00:02.136Z,98174.21
2019-01-27T00:02:35.926Z,98171.27
2019-01-27T00:05:10.695Z,98172.09
2019-01-27T00:07:44.652Z,98169.03
2019-01-27T00:10:19.298Z,98157.88
2019-01-27T00:12:53.934Z,98152.24
2019-01-27T00:15:28.269Z,98156.47
2019-01-27T00:18:02.219Z,98156.22
2019-01-27T00:20:36.814Z,98152.75
2019-01-27T00:23:10.669Z,98149.61
2019-01-27T00:25:44.446Z,98149.71
2019-01-27T00:28:18.373Z,98146.64
2019-01-27T00:30:52.648Z,98141.52
2019-01-27T00:33:26.918Z,98143.77
2019-01-27T00:36:02.182Z,98140.52
2019-01-27T00:38:36.675Z,98137.32
2019-01-27T00:41:10.880Z,98132.93
2019-01-27T00:43:45.767Z,98128.72
2019-01-27T00:46:20.790Z,98133.20
2019-01-27T00:48:54.386Z,98129.88
2019-01-27T00:51:28.095Z,98125.17
2019-01-27T00:54:02.100Z,98121.64
2019-01-27T00:56:37.008Z,98126.81
2019-01-27T00:59:11.929Z,98126.08
2019-01-27T01:01:46.311Z,98120.16
2019-01-27T01:04:20.289Z,98127.00
2019-01-27T01:06:54.169Z,98123.95
2019-01-27T01:09:28.072Z,98119.23
2019-01-27T01:12:01.488Z,98114.44
2019-01-27T01:14:36.635Z,98111.58
2019-01-27T01:17:11.829Z,98111.48
2019-01-27T01:19:46.329Z,98109.73
2019-01-27T01:22:20.299Z,98103.65
2019-01-27T01:24:54.838Z,98092.39
2019-01-27T01:27:29.621Z,98089.00
2019-01-27T01:30:03.444Z,98082.75
2019-01-27T01:32:37.362Z,98079.34
2019-01-27T01:35:12.749Z,98076.14
2019-01-27T01:37:46.607Z,98064.97
2019-01-27T01:40:22.707Z,98064.08
2019-01-27T01:42:57.521Z,98052.45
2019-01-27T01:45:34.430Z,98051.87
2019-01-27T01:48:08.758Z,98047.72
2019-01-27T01:50:42.500Z,98053.44
2019-01-27T01:53:17.805Z,98054.34
2019-01-27T01:55:52.087Z,98054.02
2019-01-27T01:58:26.072Z,98052.36
2019-01-27T02:01:01.891Z,98045.41
2019-01-27T02:03:36.651Z,98039.39
2019-01-27T02:06:11.315Z,98044.16
2019-01-27T02:08:45.422Z,98051.69
2019-01-27T02:11:19.797Z,98041.62
2019-01-27T02:13:54.144Z,98039.15
2019-01-27T02:16:28.306Z,98045.81
2019-01-27T02:19:02.705Z,98039.72
2019-01-27T02:21:37.799Z,98035.84
2019-01-27T02:24:14.078Z,98039.89
2019-01-27T02:26:48.511Z,98039.73
2019-01-27T02:29:23.262Z,98037.97
2019-01-27T02:31:58.142Z,98030.97
2019-01-27T02:34:32.598Z,98027.76
2019-01-27T02:37:07.636Z,98025.53
2019-01-27T02:39:42.368Z,98016.11
2019-01-27T02:42:16.533Z,98010.74
2019-01-27T02:44:50.680Z,98007.59
2019-01-27T02:47:24.997Z,97992.24
2019-01-27T02:49:59.983Z,97986.95
2019-01-27T02:52:33.345Z,97980.12
2019-01-27T02:55:08.931Z,97977.39
2019-01-27T02:57:42.768Z,97983.67
2019-01-27T03:00:17.424Z,97985.97
2019-01-27T03:02:52.018Z,97983.67
2019-01-27T03:05:43.759Z,97984.64
2019-01-27T03:08:18.747Z,97980.59
2019-01-27T03:10:53.359Z,97974.50
2019-01-27T03:13:29.022Z,97973.00
2019-01-27T03:16:03.528Z,97976.06
2019-01-27T03:18:38.596Z,97974.67
2019-01-27T03:21:14.635Z,97978.20
2019-01-27T03:23:48.389Z,97967.20
2019-01-27T03:26:21.907Z,97967.71
2019-01-27T03:28:56.225Z,97962.09
2019-01-27T03:31:30.148Z,97968.05
2019-01-27T03:34:04.425Z,97965.23
2019-01-27T03:36:38.483Z,97963.67
2019-01-27T03:39:16.037Z,97962.36
2019-01-27T03:41:50.258Z,97948.22
2019-01-27T03:44:24.390Z,97946.56
2019-01-27T03:46:57.653Z,97940.37
2019-01-27T03:49:32.720Z,97932.45
2019-01-27T03:52:06.701Z,97937.33
2019-01-27T03:54:41.653Z,97933.77
2019-01-27T03:57:15.830Z,97929.47
2019-01-27T03:59:51.227Z,97931.03
2019-01-27T04:02:24.629Z,97929.70
2019-01-27T04:04:57.864Z,97925.81
2019-01-27T04:07:32.825Z,97923.27
2019-01-27T04:10:09.196Z,97926.14
2019-01-27T04:12:42.995Z,97924.98
2019-01-27T04:15:18.313Z,97930.19
2019-01-27T04:17:53.571Z,97927.89
2019-01-27T04:20:27.555Z,97920.36
2019-01-27T04:23:01.394Z,97917.45
2019-01-27T04:25:35.713Z,97923.90
2019-01-27T04:28:11.488Z,97914.84
2019-01-27T04:30:47.317Z,97910.69
2019-01-27T04:33:22.362Z,97905.32
2019-01-27T04:35:56.166Z,97898.41
2019-01-27T04:38:32.019Z,97904.11
2019-01-27T04:41:05.881Z,97906.15
2019-01-27T04:43:40.814Z,97897.50
2019-01-27T04:46:15.544Z,97893.94
2019-01-27T04:48:49.064Z,97886.57
2019-01-27T04:51:23.008Z,97882.53
2019-01-27T04:53:56.356Z,97874.44
2019-01-27T04:56:31.012Z,97867.19
2019-01-27T04:59:06.255Z,97866.53
2019-01-27T05:01:41.553Z,97859.50
2019-01-27T05:04:25.263Z,97852.09
2019-01-27T05:07:00.121Z,97848.69
2019-01-27T05:09:34.428Z,97848.19
2019-01-27T05:12:09.245Z,97849.48
2019-01-27T05:14:43.825Z,97846.10
2019-01-27T05:17:18.480Z,97846.67
2019-01-27T05:19:53.114Z,97835.63
2019-01-27T05:22:28.700Z,97837.69
2019-01-27T05:25:03.506Z,97837.02
2019-01-27T05:27:37.791Z,97837.84
2019-01-27T05:30:15.784Z,97836.59
2019-01-27T05:32:49.185Z,97830.06
2019-01-27T05:35:23.101Z,97831.89
2019-01-27T05:37:56.891Z,97835.59
2019-01-27T05:40:31.316Z,97828.90
2019-01-27T05:43:05.734Z,97826.84
2019-01-27T05:45:40.161Z,97818.06
2019-01-27T05:48:15.123Z,97817.73
2019-01-27T05:50:49.506Z,97817.06
2019-01-27T05:53:24.177Z,97813.27
2019-01-27T05:55:58.597Z,97807.64
2019-01-27T05:58:34.569Z,97803.28
2019-01-27T06:01:11.821Z,97800.95
2019-01-27T06:03:46.015Z,97793.34
2019-01-27T06:06:23.041Z,97788.39
2019-01-27T06:08:57.771Z,97785.00
2019-01-27T06:11:36.162Z,97782.69
2019-01-27T06:14:10.004Z,97778.55
2019-01-27T06:16:44.961Z,97770.05
2019-01-27T06:19:19.333Z,97768.94
2019-01-27T06:21:54.384Z,97768.61
2019-01-27T06:24:28.817Z,97764.95
2019-01-27T06:27:03.777Z,97761.97
2019-01-27T06:29:37.730Z,97759.34
2019-01-27T06:32:14.710Z,97757.17
2019-01-27T06:34:48.844Z,97755.59
2019-01-27T06:37:24.922Z,97757.33
2019-01-27T06:39:59.202Z,97749.50
2019-01-27T06:42:33.987Z,97745.37
2019-01-27T06:45:09.043Z,97750.02
2019-01-27T06:47:43.351Z,97756.45
2019-01-27T06:50:16.487Z,97746.77
2019-01-27T06:52:51.751Z,97740.36
2019-01-27T06:55:24.726Z,97741.03
2019-01-27T06:57:58.329Z,97725.98
2019-01-27T07:00:59.321Z,97720.34
2019-01-27T07:03:50.100Z,97721.98
2019-01-27T07:06:47.859Z,97713.59
2019-01-27T07:09:40.566Z,97709.78
2019-01-27T07:12:35.942Z,97712.09
2019-01-27T07:15:29.547Z,97712.20
2019-01-27T07:18:25.512Z,97716.67
2019-01-27T07:21:25.319Z,97717.84
2019-01-27T07:24:15.001Z,97719.22
2019-01-27T07:27:05.939Z,97717.22
2019-01-27T07:30:07.820Z,97715.70
2019-01-27T07:32:56.610Z,97717.42
2019-01-27T07:35:43.965Z,97714.11
2019-01-27T07:38:40.325Z,97711.45
2019-01-27T07:41:37.692Z,97706.72
2019-01-27T07:44:27.316Z,97716.42
2019-01-27T07:47:34.724Z,97707.52
2019-01-27T07:50:21.388Z,97713.19
2019-01-27T07:53:16.415Z,97705.23
2019-01-27T07:56:12.707Z,97704.25
2019-01-27T07:58:56.020Z,97699.06
2019-01-27T08:01:59.052Z,97700.84
2019-01-27T08:05:00.581Z,97696.27
2019-01-27T08:07:56.952Z,97694.97
2019-01-27T08:10:54.490Z,97689.37
2019-01-27T08:13:46.446Z,97672.88
2019-01-27T08:16:39.131Z,97666.95
2019-01-27T08:19:22.052Z,97663.86
2019-01-27T08:22:14.115Z,97660.56
2019-01-27T08:25:02.988Z,97660.80
2019-01-27T08:27:54.765Z,97663.67
2019-01-27T08:30:48.620Z,97673.77
2019-01-27T08:33:43.719Z,97658.67
2019-01-27T08:36:52.024Z,97652.22
2019-01-27T08:39:44.740Z,97649.95
2019-01-27T08:42:32.234Z,97644.66
2019-01-27T08:45:26.294Z,97645.06
2019-01-27T08:48:00.061Z,97650.91
2019-01-27T08:50:34.448Z,97646.56
2019-01-27T08:53:08.696Z,97637.89
2019-01-27T08:55:42.676Z,97643.06
2019-01-27T08:58:16.582Z,97640.56
2019-01-27T09:01:01.357Z,97638.72
2019-01-27T09:03:39.719Z,97644.41
2019-01-27T09:06:22.704Z,97644.84
2019-01-27T09:09:15.431Z,97639.02
2019-01-27T09:12:13.579Z,97634.34
2019-01-27T09:15:12.839Z,97634.30
2019-01-27T09:18:02.763Z,97627.50
2019-01-27T09:20:54.045Z,97623.23
2019-01-27T09:23:40.851Z,97628.80
2019-01-27T09:26:32.417Z,97625.14
2019-01-27T09:29:13.930Z,97609.67
2019-01-27T09:32:24.727Z,97617.86
2019-01-27T09:35:29.609Z,97622.40
2019-01-27T09:38:17.547Z,97619.57
2019-01-27T09:41:12.065Z,97621.70
2019-01-27T09:44:03.535Z,97621.05
2019-01-27T09:46:55.830Z,97618.75
2019-01-27T09:49:53.166Z,97617.22
2019-01-27T09:52:40.738Z,97616.02
2019-01-27T09:55:34.872Z,97616.68
2019-01-27T09:58:29.015Z,97619.79
2019-01-27T10:01:27.732Z,97608.72
2019-01-27T10:04:19.800Z,97601.86
2019-01-27T10:07:21.718Z,97604.03
2019-01-27T10:10:18.534Z,97594.08
2019-01-27T10:13:19.021Z,97588.84
2019-01-27T10:16:05.723Z,97576.70
2019-01-27T10:19:07.111Z,97565.75
2019-01-27T10:22:11.166Z,97561.82
2019-01-27T10:25:15.870Z,97567.86
2019-01-27T10:28:11.655Z,97565.38
2019-01-27T10:31:10.504Z,97563.84
2019-01-27T10:34:01.394Z,97562.73
2019-01-27T10:36:55.583Z,97559.63
2019-01-27T10:39:37.194Z,97552.72
2019-01-27T10:42:41.241Z,97553.97
2019-01-27T10:45:33.035Z,97539.90
2019-01-27T10:48:33.479Z,97533.08
2019-01-27T10:51:41.248Z,97535.30
2019-01-27T10:54:24.467Z,97533.75
2019-01-27T10:57:26.074Z,97521.83
2019-01-27T11:00:20.109Z,97522.30
2019-01-27T11:03:12.113Z,97523.82
2019-01-27T11:06:15.659Z,97520.03
2019-01-27T11:09:07.431Z,97511.64
2019-01-27T11:12:01.767Z,97512.30
2019-01-27T11:14:46.877Z,97506.91
2019-01-27T11:17:29.916Z,97508.00
2019-01-27T11:20:12.458Z,97502.67
2019-01-27T11:22:55.696Z,97492.41
2019-01-27T11:25:46.307Z,97489.23
2019-01-27T11:28:42.763Z,97482.95
2019-01-27T11:31:29.383Z,97481.45
2019-01-27T11:34:12.405Z,97475.63
2019-01-27T11:37:11.272Z,97480.86
2019-01-27T11:40:02.264Z,97474.09
2019-01-27T11:43:03.942Z,97464.80
2019-01-27T11:45:56.567Z,97466.91
2019-01-27T11:48:54.621Z,97463.77
2019-01-27T11:51:50.081Z,97459.27
2019-01-27T11:54:24.624Z,97453.04
2019-01-27T11:57:01.470Z,97440.69
2019-01-27T11:59:34.618Z,97449.20
2019-01-27T12:02:07.452Z,97444.84
2019-01-27T12:04:40.971Z,97443.30
2019-01-27T12:07:15.011Z,97435.09
2019-01-27T12:09:50.456Z,97436.60
2019-01-27T12:12:23.616Z,97439.55
2019-01-27T12:15:00.006Z,97429.97
2019-01-27T12:17:34.031Z,97411.03
2019-01-27T12:20:09.378Z,97408.52
2019-01-27T12:22:42.669Z,97412.09
2019-01-27T12:25:17.064Z,97413.09
2019-01-27T12:27:52.014Z,97409.53
2019-01-27T12:30:29.517Z,97413.75
2019-01-27T12:33:11.633Z,97408.88
2019-01-27T12:35:46.128Z,97400.88
2019-01-27T12:38:19.905Z,97394.72
2019-01-27T12:40:58.893Z,97399.14
2019-01-27T12:43:39.141Z,97386.14
2019-01-27T12:46:15.336Z,97391.55
2019-01-27T12:48:50.313Z,97386.45
2019-01-27T12:51:23.427Z,97387.34
2019-01-27T12:53:56.554Z,97381.30
2019-01-27T12:56:31.778Z,97375.95
2019-01-27T12:59:07.093Z,97381.17
2019-01-27T13:01:42.287Z,97371.70
2019-01-27T13:04:17.683Z,97378.80
2019-01-27T13:06:52.084Z,97376.71
2019-01-27T13:09:25.943Z,97373.98
2019-01-27T13:12:00.946Z,97371.87
2019-01-27T13:14:35.851Z,97367.69
2019-01-27T13:17:10.077Z,97365.34
2019-01-27T13:19:43.890Z,97371.35
2019-01-27T13:22:18.200Z,97363.62
2019-01-27T13:24:52.381Z,97367.45
2019-01-27T13:27:26.753Z,97366.94
2019-01-27T13:30:01.145Z,97361.08
2019-01-27T13:32:36.009Z,97360.58
2019-01-27T13:35:10.630Z,97354.39
2019-01-27T13:37:44.796Z,97358.45
2019-01-27T13:40:20.807Z,97348.97
2019-01-27T13:42:54.009Z,97344.41
2019-01-27T13:45:28.761Z,97347.30
2019-01-27T13:48:02.097Z,97346.17
2019-01-27T13:50:37.532Z,97345.69
2019-01-27T13:53:12.583Z,97341.57
2019-01-27T13:55:46.566Z,97335.74
2019-01-27T13:58:20.378Z,97342.91
2019-01-27T14:00:53.993Z,97340.58
2019-01-27T14:03:29.216Z,97339.09
2019-01-27T14:06:06.538Z,97337.70
2019-01-27T14:08:44.219Z,97340.08
2019-01-27T14:11:18.957Z,97332.25
2019-01-27T14:13:56.655Z,97333.13
2019-01-27T14:16:30.276Z,97340.96
2019-01-27T14:19:04.598Z,97328.05
2019-01-27T14:21:39.186Z,97323.67
2019-01-27T14:24:15.882Z,97335.16
2019-01-27T14:26:49.675Z,97327.92
2019-01-27T14:29:23.910Z,97335.92
2019-01-27T14:31:58.375Z,97348.31
2019-01-27T14:34:31.629Z,97341.66
2019-01-27T14:37:05.736Z,97335.84
2019-01-27T14:39:43.010Z,97331.92
2019-01-27T14:42:18.312Z,97334.52
2019-01-27T14:44:51.029Z,97342.72
2019-01-27T14:47:25.565Z,97336.83
2019-01-27T14:50:00.789Z,97343.41
2019-01-27T14:52:34.651Z,97339.47
2019-01-27T14:55:10.876Z,97331.45
2019-01-27T14:57:43.471Z,97327.36
2019-01-27T15:00:27.367Z,97322.41
2019-01-27T15:03:01.345Z,97319.71
2019-01-27T15:05:36.240Z,97322.06
2019-01-27T15:08:11.862Z,97319.41
2019-01-27T15:10:49.730Z,97328.48
2019-01-27T15:13:24.334Z,97327.91
2019-01-27T15:15:58.093Z,97324.46
2019-01-27T15:18:31.307Z,97321.78
2019-01-27T15:21:18.815Z,97313.84
2019-01-27T15:23:52.602Z,97318.16
2019-01-27T15:26:26.548Z,97305.81
2019-01-27T15:29:00.445Z,97300.55
2019-01-27T15:31:34.875Z,97295.69
2019-01-27T15:34:09.287Z,97297.34
2019-01-27T15:36:45.211Z,97293.25
2019-01-27T15:39:19.231Z,97288.53
2019-01-27T15:41:52.138Z,97288.86
2019-01-27T15:44:26.445Z,97288.36
2019-01-27T15:47:01.263Z,97294.80
2019-01-27T15:49:35.925Z,97295.08
2019-01-27T15:52:10.493Z,97297.41
2019-01-27T15:54:44.525Z,97283.39
2019-01-27T15:57:19.178Z,97305.42
2019-01-27T15:59:52.665Z,97295.25
2019-01-27T16:02:27.464Z,97300.84
2019-01-27T16:05:02.822Z,97302.69
2019-01-27T16:07:36.295Z,97303.73
2019-01-27T16:10:12.007Z,97296.36
2019-01-27T16:12:50.444Z,97289.40
2019-01-27T16:15:28.258Z,97278.23
2019-01-27T16:18:02.648Z,97277.92
2019-01-27T16:20:37.653Z,97284.64
2019-01-27T16:23:39.485Z,97282.24
2019-01-27T16:26:13.119Z,97280.69
2019-01-27T16:28:53.818Z,97289.92
2019-01-27T16:31:44.074Z,97289.98
2019-01-27T16:34:31.640Z,97296.91
2019-01-27T16:37:06.144Z,97300.39
2019-01-27T16:39:39.568Z,97300.86
2019-01-27T16:42:16.732Z,97297.05
2019-01-27T16:44:54.678Z,97298.52
2019-01-27T16:47:28.123Z,97303.54
2019-01-27T16:50:02.712Z,97297.85
2019-01-27T16:52:37.556Z,97293.48
2019-01-27T16:55:14.264Z,97296.22
2019-01-27T16:57:48.291Z,97295.61
2019-01-27T17:00:25.487Z,97296.14
2019-01-27T17:02:58.338Z,97302.49
2019-01-27T17:05:31.632Z,97303.02
2019-01-27T17:08:05.466Z,97312.52
2019-01-27T17:10:39.486Z,97328.13
2019-01-27T17:13:13.048Z,97313.04
2019-01-27T17:15:46.893Z,97317.81
2019-01-27T17:18:20.344Z,97319.45
2019-01-27T17:20:55.663Z,97314.64
2019-01-27T17:23:30.079Z,97313.04
2019-01-27T17:26:04.007Z,97309.11
2019-01-27T17:28:38.231Z,97311.66
2019-01-27T17:31:12.032Z,97308.36
2019-01-27T17:33:47.992Z,97308.95
2019-01-27T17:36:22.473Z,97304.97
2019-01-27T17:38:56.343Z,97309.94
2019-01-27T17:41:29.584Z,97303.55
2019-01-27T17:44:03.769Z,97302.53
2019-01-27T17:46:36.755Z,97300.12
2019-01-27T17:49:16.807Z,97302.97
2019-01-27T17:51:55.439Z,97301.09
2019-01-27T17:54:29.926Z,97308.23
2019-01-27T17:57:24.217Z,97304.87
2019-01-27T18:00:19.101Z,97303.73
2019-01-27T18:03:03.306Z,97290.69
2019-01-27T18:05:48.066Z,97303.48
2019-01-27T18:08:35.386Z,97299.94
2019-01-27T18:11:31.128Z,97291.73
2019-01-27T18:14:10.372Z,97300.75
2019-01-27T18:16:43.967Z,97300.75
2019-01-27T18:19:17.570Z,97305.97
2019-01-27T18:21:53.069Z,97299.73
2019-01-27T18:24:27.998Z,97299.22
2019-01-27T18:27:03.628Z,97293.06
2019-01-27T18:29:36.869Z,97289.92
2019-01-27T18:32:18.429Z,97293.29
2019-01-27T18:34:53.885Z,97289.04
2019-01-27T18:37:27.733Z,97298.98
2019-01-27T18:40:01.493Z,97297.86
2019-01-27T18:42:37.204Z,97305.02
2019-01-27T18:45:14.703Z,97305.81
2019-01-27T18:47:48.749Z,97303.81
2019-01-27T18:50:26.860Z,97306.66
2019-01-27T18:53:11.314Z,97306.70
2019-01-27T18:56:04.724Z,97312.61
2019-01-27T18:59:12.794Z,97303.91
2019-01-27T19:01:54.443Z,97309.78
2019-01-27T19:04:48.642Z,97318.77
2019-01-27T19:07:39.534Z,97311.31
2019-01-27T19:10:38.066Z,97316.70
2019-01-27T19:13:35.413Z,97327.59
2019-01-27T19:16:30.584Z,97327.30
2019-01-27T19:19:31.304Z,97329.83
2019-01-27T19:22:43.931Z,97323.33
2019-01-27T19:25:35.475Z,97324.19
2019-01-27T19:28:21.723Z,97320.42
2019-01-27T19:31:03.739Z,97311.56
2019-01-27T19:33:56.212Z,97314.46
2019-01-27T19:36:54.991Z,97320.03
2019-01-27T19:39:38.509Z,97320.91
2019-01-27T19:42:42.270Z,97318.15
2019-01-27T19:45:34.131Z,97315.25
2019-01-27T19:48:25.540Z,97325.22
2019-01-27T19:51:28.298Z,97331.97
2019-01-27T19:54:35.256Z,97327.36
2019-01-27T19:57:33.988Z,97335.22
2019-01-27T20:00:33.350Z,97330.20
2019-01-27T20:03:41.884Z,97321.12
2019-01-27T20:06:26.520Z,97326.98
2019-01-27T20:09:33.231Z,97318.59
2019-01-27T20:12:30.808Z,97312.02
2019-01-27T20:15:23.291Z,97310.86
2019-01-27T20:18:14.710Z,97320.27
2019-01-27T20:21:14.570Z,97328.98
2019-01-27T20:24:07.219Z,97319.44
2019-01-27T20:27:03.771Z,97328.33
2019-01-27T20:29:56.132Z,97314.16
2019-01-27T20:32:46.735Z,97312.03
2019-01-27T20:35:46.241Z,97306.69
2019-01-27T20:38:27.221Z,97310.69
2019-01-27T20:41:08.950Z,97305.33
2019-01-27T20:43:50.073Z,97305.33
2019-01-27T20:46:48.856Z,97304.92
2019-01-27T20:49:52.784Z,97311.70
2019-01-27T20:52:39.294Z,97309.87
2019-01-27T20:55:37.571Z,97300.68
2019-01-27T20:58:35.221Z,97297.20
2019-01-27T21:01:34.564Z,97303.02
2019-01-27T21:04:25.458Z,97305.85
2019-01-27T21:07:22.730Z,97313.62
2019-01-27T21:10:06.589Z,97306.73
2019-01-27T21:13:07.871Z,97309.10
2019-01-27T21:15:45.174Z,97303.97
2019-01-27T21:18:33.032Z,97302.98
2019-01-27T21:21:07.147Z,97306.02
2019-01-27T21:23:41.953Z,97307.82
2019-01-27T21:26:15.171Z,97304.92
2019-01-27T21:28:48.581Z,97308.44
2019-01-27T21:31:22.395Z,97312.08
2019-01-27T21:33:56.039Z,97310.25
2019-01-27T21:36:30.174Z,97307.55
2019-01-27T21:39:04.059Z,97295.53
2019-01-27T21:41:37.429Z,97297.35
2019-01-27T21:44:11.336Z,97287.63
2019-01-27T21:46:46.615Z,97291.66
2019-01-27T21:49:20.917Z,97285.23
2019-01-27T21:51:55.127Z,97283.72
2019-01-27T21:54:29.289Z,97294.44
2019-01-27T21:57:03.367Z,97291.90
2019-01-27T21:59:38.906Z,97290.52
2019-01-27T22:02:13.169Z,97286.00
2019-01-27T22:04:47.782Z,97287.56
2019-01-27T22:07:22.071Z,97288.16
2019-01-27T22:09:56.609Z,97295.34
2019-01-27T22:12:30.581Z,97302.75
2019-01-27T22:15:05.941Z,97304.72
2019-01-27T22:17:40.359Z,97303.14
2019-01-27T22:20:16.428Z,97303.86
2019-01-27T22:22:52.730Z,97297.70
2019-01-27T22:25:25.963Z,97295.14
2019-01-27T22:27:59.218Z,97288.67
2019-01-27T22:30:33.526Z,97288.44
2019-01-27T22:33:07.136Z,97283.91
2019-01-27T22:35:40.649Z,97279.26
2019-01-27T22:38:14.927Z,97279.20
2019-01-27T22:40:49.776Z,97282.09
2019-01-27T22:43:23.952Z,97275.77
2019-01-27T22:45:57.813Z,97275.30
2019-01-27T22:48:31.737Z,97273.11
2019-01-27T22:51:05.508Z,97280.72
2019-01-27T22:53:39.822Z,97281.39
2019-01-27T22:56:14.241Z,97270.52
2019-01-27T22:58:49.572Z,97280.70
2019-01-27T23:01:23.390Z,97280.55
2019-01-27T23:04:00.623Z,97285.34
2019-01-27T23:06:34.765Z,97282.47
2019-01-27T23:09:16.231Z,97282.32
2019-01-27T23:11:50.283Z,97276.70
2019-01-27T23:14:25.015Z,97271.41
2019-01-27T23:16:59.797Z,97267.86
2019-01-27T23:19:34.510Z,97264.84
2019-01-27T23:22:08.584Z,97269.84
2019-01-27T23:24:42.493Z,97267.81
2019-01-27T23:27:15.966Z,97263.37
2019-01-27T23:29:50.634Z,97270.30
2019-01-27T23:32:25.027Z,97269.71
2019-01-27T23:34:59.323Z,97269.25
2019-01-27T23:37:35.223Z,97259.91
2019-01-27T23:40:10.368Z,97259.36
2019-01-27T23:42:44.499Z,97252.28
2019-01-27T23:45:18.610Z,97252.47
2019-01-27T23:47:52.471Z,97246.38
2019-01-27T23:50:27.520Z,97253.25
2019-01-27T23:53:02.817Z,97266.47
2019-01-27T23:55:36.576Z,97267.89
2019-01-27T23:58:11.112Z,97266.13
